sensor_id;sensor_type;location;lat;lon;timestamp;pressure;altitude;pressure_sealevel;temperature;humidity
75895;BME280;64573;50.328;15.014;2023-09-30T00:02:21;99203.50;;;18.99;100.00
75895;BME280;64573;50.328;15.014;2023-09-30T00:04:46;99210.44;;;18.95;100.00
75895;BME280;64573;50.328;15.014;2023-09-30T00:07:12;99211.50;;;18.94;100.00
75895;BME280;64573;50.328;15.014;2023-09-30T00:09:37;99221.19;;;18.90;100.00
75895;BME280;64573;50.328;15.014;2023-09-30T00:12:02;99229.69;;;18.94;100.00
75895;BME280;64573;50.328;15.014;2023-09-30T00:14:28;99232.16;;;18.95;100.00
75895;BME280;64573;50.328;15.014;2023-09-30T00:16:54;99219.41;;;18.96;100.00
75895;BME280;64573;50.328;15.014;2023-09-30T00:19:20;99219.28;;;18.91;100.00
75895;BME280;64573;50.328;15.014;2023-09-30T00:21:48;99225.09;;;18.94;100.00
75895;BME280;64573;50.328;15.014;2023-09-30T00:24:13;99221.84;;;18.86;100.00
75895;BME280;64573;50.328;15.014;2023-09-30T00:26:38;99227.28;;;18.86;100.00
75895;BME280;64573;50.328;15.014;2023-09-30T00:29:04;99230.44;;;18.83;100.00
75895;BME280;64573;50.328;15.014;2023-09-30T00:31:30;99230.91;;;18.80;100.00
75895;BME280;64573;50.328;15.014;2023-09-30T00:33:56;99235.75;;;18.78;100.00
75895;BME280;64573;50.328;15.014;2023-09-30T00:36:21;99231.00;;;18.73;100.00
75895;BME280;64573;50.328;15.014;2023-09-30T00:38:46;99225.78;;;18.71;100.00
75895;BME280;64573;50.328;15.014;2023-09-30T00:41:12;99242.94;;;18.72;100.00
75895;BME280;64573;50.328;15.014;2023-09-30T00:43:37;99237.25;;;18.73;100.00
75895;BME280;64573;50.328;15.014;2023-09-30T00:46:31;99237.72;;;18.70;100.00
75895;BME280;64573;50.328;15.014;2023-09-30T00:48:57;99242.34;;;18.70;100.00
75895;BME280;64573;50.328;15.014;2023-09-30T00:51:23;99238.00;;;18.62;100.00
75895;BME280;64573;50.328;15.014;2023-09-30T00:53:50;99256.31;;;18.30;100.00
75895;BME280;64573;50.328;15.014;2023-09-30T00:56:17;99265.63;;;18.16;100.00
75895;BME280;64573;50.328;15.014;2023-09-30T00:58:45;99265.25;;;18.12;100.00
75895;BME280;64573;50.328;15.014;2023-09-30T01:01:10;99256.34;;;18.05;100.00
75895;BME280;64573;50.328;15.014;2023-09-30T01:03:37;99256.13;;;18.07;100.00
75895;BME280;64573;50.328;15.014;2023-09-30T01:06:02;99250.69;;;18.07;100.00
75895;BME280;64573;50.328;15.014;2023-09-30T01:08:28;99259.28;;;18.04;100.00
75895;BME280;64573;50.328;15.014;2023-09-30T01:10:54;99262.06;;;17.97;100.00
75895;BME280;64573;50.328;15.014;2023-09-30T01:13:20;99267.97;;;17.87;100.00
75895;BME280;64573;50.328;15.014;2023-09-30T01:15:45;99277.25;;;17.73;100.00
75895;BME280;64573;50.328;15.014;2023-09-30T01:18:12;99278.53;;;17.71;100.00
75895;BME280;64573;50.328;15.014;2023-09-30T01:20:38;99281.88;;;17.66;100.00
75895;BME280;64573;50.328;15.014;2023-09-30T01:23:03;99279.00;;;17.61;100.00
75895;BME280;64573;50.328;15.014;2023-09-30T01:25:29;99274.19;;;17.63;100.00
75895;BME280;64573;50.328;15.014;2023-09-30T01:27:55;99284.22;;;17.62;100.00
75895;BME280;64573;50.328;15.014;2023-09-30T01:30:20;99285.03;;;17.63;100.00
75895;BME280;64573;50.328;15.014;2023-09-30T01:32:47;99290.28;;;17.58;100.00
75895;BME280;64573;50.328;15.014;2023-09-30T01:35:13;99282.16;;;17.58;100.00
75895;BME280;64573;50.328;15.014;2023-09-30T01:37:38;99282.97;;;17.58;100.00
75895;BME280;64573;50.328;15.014;2023-09-30T01:40:04;99289.72;;;17.49;100.00
75895;BME280;64573;50.328;15.014;2023-09-30T01:42:33;99288.06;;;17.48;100.00
75895;BME280;64573;50.328;15.014;2023-09-30T01:44:58;99289.94;;;17.48;100.00
75895;BME280;64573;50.328;15.014;2023-09-30T01:47:23;99288.88;;;17.49;100.00
75895;BME280;64573;50.328;15.014;2023-09-30T01:49:49;99285.72;;;17.52;100.00
75895;BME280;64573;50.328;15.014;2023-09-30T01:52:14;99296.19;;;17.48;100.00
75895;BME280;64573;50.328;15.014;2023-09-30T01:54:39;99288.44;;;17.52;100.00
75895;BME280;64573;50.328;15.014;2023-09-30T01:57:05;99283.69;;;17.47;100.00
75895;BME280;64573;50.328;15.014;2023-09-30T01:59:30;99293.81;;;17.58;100.00
75895;BME280;64573;50.328;15.014;2023-09-30T02:01:55;99281.38;;;17.82;100.00
75895;BME280;64573;50.328;15.014;2023-09-30T02:04:21;99269.00;;;18.55;100.00
75895;BME280;64573;50.328;15.014;2023-09-30T02:06:46;99279.56;;;18.63;100.00
75895;BME280;64573;50.328;15.014;2023-09-30T02:09:12;99267.66;;;19.00;100.00
75895;BME280;64573;50.328;15.014;2023-09-30T02:11:37;99270.88;;;19.09;100.00
75895;BME280;64573;50.328;15.014;2023-09-30T02:14:03;99273.28;;;19.17;100.00
75895;BME280;64573;50.328;15.014;2023-09-30T02:16:31;99270.22;;;19.14;100.00
75895;BME280;64573;50.328;15.014;2023-09-30T02:18:56;99290.22;;;19.01;100.00
75895;BME280;64573;50.328;15.014;2023-09-30T02:21:21;99287.47;;;18.46;100.00
75895;BME280;64573;50.328;15.014;2023-09-30T02:23:47;99310.41;;;18.07;100.00
75895;BME280;64573;50.328;15.014;2023-09-30T02:26:20;99312.66;;;17.85;100.00
75895;BME280;64573;50.328;15.014;2023-09-30T02:28:45;99315.16;;;17.86;100.00
75895;BME280;64573;50.328;15.014;2023-09-30T02:31:11;99320.41;;;17.81;100.00
75895;BME280;64573;50.328;15.014;2023-09-30T02:33:37;99326.28;;;17.78;100.00
75895;BME280;64573;50.328;15.014;2023-09-30T02:36:07;99324.78;;;17.82;100.00
75895;BME280;64573;50.328;15.014;2023-09-30T02:38:33;99319.56;;;17.81;100.00
75895;BME280;64573;50.328;15.014;2023-09-30T02:40:58;99332.25;;;17.87;100.00
75895;BME280;64573;50.328;15.014;2023-09-30T02:43:23;99331.19;;;17.88;100.00
75895;BME280;64573;50.328;15.014;2023-09-30T02:45:49;99332.66;;;17.90;100.00
75895;BME280;64573;50.328;15.014;2023-09-30T02:48:15;99321.97;;;17.96;100.00
75895;BME280;64573;50.328;15.014;2023-09-30T02:50:43;99331.34;;;18.00;100.00
75895;BME280;64573;50.328;15.014;2023-09-30T02:53:12;99331.50;;;18.05;100.00
75895;BME280;64573;50.328;15.014;2023-09-30T02:55:41;99337.78;;;18.05;100.00
75895;BME280;64573;50.328;15.014;2023-09-30T02:58:07;99340.03;;;18.08;100.00
75895;BME280;64573;50.328;15.014;2023-09-30T03:00:34;99337.53;;;18.07;100.00
75895;BME280;64573;50.328;15.014;2023-09-30T03:03:01;99342.38;;;18.05;100.00
75895;BME280;64573;50.328;15.014;2023-09-30T03:05:30;99348.41;;;18.07;100.00
75895;BME280;64573;50.328;15.014;2023-09-30T03:07:58;99344.31;;;17.98;100.00
75895;BME280;64573;50.328;15.014;2023-09-30T03:10:25;99350.09;;;17.76;100.00
75895;BME280;64573;50.328;15.014;2023-09-30T03:12:53;99357.41;;;17.69;100.00
75895;BME280;64573;50.328;15.014;2023-09-30T03:15:18;99362.66;;;17.57;100.00
75895;BME280;64573;50.328;15.014;2023-09-30T03:17:44;99368.53;;;17.54;100.00
75895;BME280;64573;50.328;15.014;2023-09-30T03:20:10;99370.44;;;17.54;100.00
75895;BME280;64573;50.328;15.014;2023-09-30T03:22:42;99369.63;;;17.47;100.00
75895;BME280;64573;50.328;15.014;2023-09-30T03:25:10;99376.94;;;17.46;100.00
75895;BME280;64573;50.328;15.014;2023-09-30T03:27:35;99374.59;;;17.50;100.00
75895;BME280;64573;50.328;15.014;2023-09-30T03:30:02;99379.19;;;17.49;100.00
75895;BME280;64573;50.328;15.014;2023-09-30T03:32:29;99387.81;;;17.40;100.00
75895;BME280;64573;50.328;15.014;2023-09-30T03:34:54;99390.94;;;17.36;100.00
75895;BME280;64573;50.328;15.014;2023-09-30T03:37:24;99403.50;;;17.24;100.00
75895;BME280;64573;50.328;15.014;2023-09-30T03:39:52;99409.19;;;17.09;100.00
75895;BME280;64573;50.328;15.014;2023-09-30T03:42:18;99397.31;;;17.04;100.00
75895;BME280;64573;50.328;15.014;2023-09-30T03:44:43;99410.41;;;17.07;100.00
75895;BME280;64573;50.328;15.014;2023-09-30T03:47:08;99414.38;;;17.18;100.00
75895;BME280;64573;50.328;15.014;2023-09-30T03:49:34;99409.09;;;17.29;100.00
75895;BME280;64573;50.328;15.014;2023-09-30T03:51:59;99403.88;;;17.34;100.00
75895;BME280;64573;50.328;15.014;2023-09-30T03:54:26;99411.16;;;17.41;100.00
75895;BME280;64573;50.328;15.014;2023-09-30T03:56:52;99398.81;;;17.45;100.00
75895;BME280;64573;50.328;15.014;2023-09-30T03:59:17;99404.41;;;17.56;100.00
75895;BME280;64573;50.328;15.014;2023-09-30T04:01:44;99406.47;;;17.61;100.00
75895;BME280;64573;50.328;15.014;2023-09-30T04:04:09;99405.81;;;17.65;100.00
75895;BME280;64573;50.328;15.014;2023-09-30T04:06:35;99414.78;;;17.66;100.00
75895;BME280;64573;50.328;15.014;2023-09-30T04:09:03;99416.88;;;17.64;100.00
75895;BME280;64573;50.328;15.014;2023-09-30T04:11:34;99428.75;;;17.70;100.00
75895;BME280;64573;50.328;15.014;2023-09-30T04:14:00;99423.56;;;17.68;100.00
75895;BME280;64573;50.328;15.014;2023-09-30T04:16:25;99417.09;;;17.62;100.00
75895;BME280;64573;50.328;15.014;2023-09-30T04:18:54;99434.47;;;17.55;100.00
75895;BME280;64573;50.328;15.014;2023-09-30T04:21:20;99438.00;;;17.55;100.00
75895;BME280;64573;50.328;15.014;2023-09-30T04:23:45;99448.44;;;17.52;100.00
75895;BME280;64573;50.328;15.014;2023-09-30T04:26:11;99451.59;;;17.49;100.00
75895;BME280;64573;50.328;15.014;2023-09-30T04:28:37;99448.69;;;17.37;100.00
75895;BME280;64573;50.328;15.014;2023-09-30T04:31:02;99460.19;;;17.39;100.00
75895;BME280;64573;50.328;15.014;2023-09-30T04:33:28;99461.66;;;17.28;100.00
75895;BME280;64573;50.328;15.014;2023-09-30T04:35:53;99471.66;;;17.28;100.00
75895;BME280;64573;50.328;15.014;2023-09-30T04:38:19;99475.22;;;17.22;100.00
75895;BME280;64573;50.328;15.014;2023-09-30T04:40:44;99487.13;;;17.14;100.00
75895;BME280;64573;50.328;15.014;2023-09-30T04:43:13;99490.88;;;17.06;100.00
75895;BME280;64573;50.328;15.014;2023-09-30T04:45:39;99487.78;;;16.96;100.00
75895;BME280;64573;50.328;15.014;2023-09-30T04:48:05;99498.84;;;16.95;100.00
75895;BME280;64573;50.328;15.014;2023-09-30T04:50:30;99503.81;;;16.71;100.00
75895;BME280;64573;50.328;15.014;2023-09-30T04:52:56;99514.00;;;16.63;100.00
75895;BME280;64573;50.328;15.014;2023-09-30T04:55:23;99517.97;;;16.60;100.00
75895;BME280;64573;50.328;15.014;2023-09-30T04:57:48;99506.28;;;16.53;100.00
75895;BME280;64573;50.328;15.014;2023-09-30T05:00:16;99511.69;;;16.40;100.00
75895;BME280;64573;50.328;15.014;2023-09-30T05:02:47;99513.13;;;16.36;100.00
75895;BME280;64573;50.328;15.014;2023-09-30T05:05:13;99518.16;;;16.39;100.00
75895;BME280;64573;50.328;15.014;2023-09-30T05:07:40;99522.09;;;16.30;100.00
75895;BME280;64573;50.328;15.014;2023-09-30T05:10:05;99528.94;;;16.25;100.00
75895;BME280;64573;50.328;15.014;2023-09-30T05:12:35;99522.47;;;16.20;100.00
75895;BME280;64573;50.328;15.014;2023-09-30T05:15:00;99531.03;;;16.23;100.00
75895;BME280;64573;50.328;15.014;2023-09-30T05:17:27;99534.94;;;16.21;100.00
75895;BME280;64573;50.328;15.014;2023-09-30T05:19:53;99542.25;;;16.20;100.00
75895;BME280;64573;50.328;15.014;2023-09-30T05:22:19;99536.19;;;16.18;100.00
75895;BME280;64573;50.328;15.014;2023-09-30T05:24:49;99533.47;;;16.12;100.00
75895;BME280;64573;50.328;15.014;2023-09-30T05:27:14;99538.88;;;16.12;100.00
75895;BME280;64573;50.328;15.014;2023-09-30T05:29:39;99539.31;;;16.09;100.00
75895;BME280;64573;50.328;15.014;2023-09-30T05:32:05;99558.44;;;16.07;100.00
75895;BME280;64573;50.328;15.014;2023-09-30T05:34:32;99573.00;;;16.06;100.00
75895;BME280;64573;50.328;15.014;2023-09-30T05:36:57;99570.22;;;15.93;100.00
75895;BME280;64573;50.328;15.014;2023-09-30T05:39:23;99598.56;;;15.97;100.00
75895;BME280;64573;50.328;15.014;2023-09-30T05:41:50;99595.81;;;15.90;100.00
75895;BME280;64573;50.328;15.014;2023-09-30T05:44:16;99585.44;;;15.94;100.00
75895;BME280;64573;50.328;15.014;2023-09-30T05:46:41;99591.03;;;15.92;100.00
75895;BME280;64573;50.328;15.014;2023-09-30T05:49:09;99583.53;;;15.88;100.00
75895;BME280;64573;50.328;15.014;2023-09-30T05:51:41;99585.88;;;15.97;100.00
75895;BME280;64573;50.328;15.014;2023-09-30T05:54:07;99589.66;;;16.03;100.00
75895;BME280;64573;50.328;15.014;2023-09-30T05:56:36;99593.59;;;16.07;100.00
75895;BME280;64573;50.328;15.014;2023-09-30T05:59:02;99597.31;;;15.99;100.00
75895;BME280;64573;50.328;15.014;2023-09-30T06:01:28;99606.13;;;16.08;100.00
75895;BME280;64573;50.328;15.014;2023-09-30T06:03:53;99604.59;;;15.99;100.00
75895;BME280;64573;50.328;15.014;2023-09-30T06:06:19;99589.78;;;15.88;100.00
75895;BME280;64573;50.328;15.014;2023-09-30T06:08:45;99599.78;;;15.88;100.00
75895;BME280;64573;50.328;15.014;2023-09-30T06:11:20;99608.72;;;15.88;100.00
75895;BME280;64573;50.328;15.014;2023-09-30T06:13:52;99604.72;;;15.84;100.00
75895;BME280;64573;50.328;15.014;2023-09-30T06:16:18;99615.75;;;15.83;100.00
75895;BME280;64573;50.328;15.014;2023-09-30T06:18:44;99625.34;;;15.85;100.00
75895;BME280;64573;50.328;15.014;2023-09-30T06:21:10;99611.22;;;15.90;100.00
75895;BME280;64573;50.328;15.014;2023-09-30T06:23:36;99629.00;;;16.12;100.00
75895;BME280;64573;50.328;15.014;2023-09-30T06:26:01;99616.56;;;16.18;100.00
75895;BME280;64573;50.328;15.014;2023-09-30T06:28:28;99615.28;;;16.14;100.00
75895;BME280;64573;50.328;15.014;2023-09-30T06:30:57;99624.16;;;16.49;100.00
75895;BME280;64573;50.328;15.014;2023-09-30T06:33:22;99620.75;;;16.27;100.00
75895;BME280;64573;50.328;15.014;2023-09-30T06:35:48;99625.66;;;16.04;100.00
75895;BME280;64573;50.328;15.014;2023-09-30T06:38:18;99636.84;;;16.00;100.00
75895;BME280;64573;50.328;15.014;2023-09-30T06:40:44;99625.75;;;16.23;100.00
75895;BME280;64573;50.328;15.014;2023-09-30T06:43:15;99632.59;;;16.19;100.00
75895;BME280;64573;50.328;15.014;2023-09-30T06:45:42;99632.38;;;16.21;100.00
75895;BME280;64573;50.328;15.014;2023-09-30T06:48:09;99654.81;;;16.15;100.00
75895;BME280;64573;50.328;15.014;2023-09-30T06:50:48;99623.66;;;16.25;100.00
75895;BME280;64573;50.328;15.014;2023-09-30T06:53:18;99639.81;;;16.60;100.00
75895;BME280;64573;50.328;15.014;2023-09-30T06:55:49;99629.41;;;16.64;100.00
75895;BME280;64573;50.328;15.014;2023-09-30T06:58:16;99624.69;;;16.86;100.00
75895;BME280;64573;50.328;15.014;2023-09-30T07:00:52;99620.97;;;17.26;100.00
75895;BME280;64573;50.328;15.014;2023-09-30T07:03:20;99626.56;;;17.51;100.00
75895;BME280;64573;50.328;15.014;2023-09-30T07:05:46;99609.19;;;17.99;100.00
75895;BME280;64573;50.328;15.014;2023-09-30T07:08:14;99614.72;;;17.19;100.00
75895;BME280;64573;50.328;15.014;2023-09-30T07:10:40;99624.25;;;16.75;100.00
75895;BME280;64573;50.328;15.014;2023-09-30T07:13:05;99643.06;;;16.36;100.00
75895;BME280;64573;50.328;15.014;2023-09-30T07:15:34;99640.31;;;16.29;100.00
75895;BME280;64573;50.328;15.014;2023-09-30T07:17:59;99639.72;;;16.34;100.00
75895;BME280;64573;50.328;15.014;2023-09-30T07:20:25;99644.00;;;16.15;100.00
75895;BME280;64573;50.328;15.014;2023-09-30T07:22:51;99655.69;;;16.15;100.00
75895;BME280;64573;50.328;15.014;2023-09-30T07:25:17;99678.09;;;16.03;100.00
75895;BME280;64573;50.328;15.014;2023-09-30T07:27:43;99669.94;;;15.96;100.00
75895;BME280;64573;50.328;15.014;2023-09-30T07:30:11;99691.91;;;15.80;100.00
75895;BME280;64573;50.328;15.014;2023-09-30T07:32:37;99671.91;;;15.81;100.00
75895;BME280;64573;50.328;15.014;2023-09-30T07:35:03;99675.03;;;15.56;100.00
75895;BME280;64573;50.328;15.014;2023-09-30T07:37:28;99698.88;;;15.46;100.00
75895;BME280;64573;50.328;15.014;2023-09-30T07:39:54;99685.03;;;15.34;100.00
75895;BME280;64573;50.328;15.014;2023-09-30T07:42:19;99685.56;;;15.23;100.00
75895;BME280;64573;50.328;15.014;2023-09-30T07:44:45;99697.59;;;15.21;100.00
75895;BME280;64573;50.328;15.014;2023-09-30T07:47:10;99707.06;;;15.31;100.00
75895;BME280;64573;50.328;15.014;2023-09-30T07:49:37;99744.81;;;15.46;100.00
75895;BME280;64573;50.328;15.014;2023-09-30T07:52:03;99718.63;;;15.47;100.00
75895;BME280;64573;50.328;15.014;2023-09-30T07:54:28;99720.41;;;15.61;100.00
75895;BME280;64573;50.328;15.014;2023-09-30T07:56:54;99742.53;;;15.64;100.00
75895;BME280;64573;50.328;15.014;2023-09-30T07:59:20;99761.31;;;15.73;100.00
75895;BME280;64573;50.328;15.014;2023-09-30T08:01:47;99738.50;;;15.82;100.00
75895;BME280;64573;50.328;15.014;2023-09-30T08:04:13;99747.28;;;15.90;100.00
75895;BME280;64573;50.328;15.014;2023-09-30T08:06:38;99756.19;;;15.84;100.00
75895;BME280;64573;50.328;15.014;2023-09-30T08:09:04;99741.41;;;15.80;100.00
75895;BME280;64573;50.328;15.014;2023-09-30T08:11:36;99769.03;;;15.76;100.00
75895;BME280;64573;50.328;15.014;2023-09-30T08:14:03;99737.81;;;15.73;100.00
75895;BME280;64573;50.328;15.014;2023-09-30T08:16:32;99745.94;;;15.73;100.00
75895;BME280;64573;50.328;15.014;2023-09-30T08:18:58;99753.28;;;15.86;100.00
75895;BME280;64573;50.328;15.014;2023-09-30T08:21:23;99752.03;;;16.10;100.00
75895;BME280;64573;50.328;15.014;2023-09-30T08:23:49;99770.75;;;15.83;100.00
75895;BME280;64573;50.328;15.014;2023-09-30T08:26:14;99745.06;;;16.00;100.00
75895;BME280;64573;50.328;15.014;2023-09-30T08:28:39;99742.63;;;16.40;100.00
75895;BME280;64573;50.328;15.014;2023-09-30T08:31:05;99748.63;;;16.36;100.00
75895;BME280;64573;50.328;15.014;2023-09-30T08:33:31;99740.72;;;16.34;100.00
75895;BME280;64573;50.328;15.014;2023-09-30T08:36:03;99736.44;;;16.53;100.00
75895;BME280;64573;50.328;15.014;2023-09-30T08:38:37;99737.53;;;16.59;100.00
75895;BME280;64573;50.328;15.014;2023-09-30T08:41:03;99740.22;;;16.65;100.00
75895;BME280;64573;50.328;15.014;2023-09-30T08:43:29;99736.19;;;16.83;100.00
75895;BME280;64573;50.328;15.014;2023-09-30T08:45:57;99738.03;;;16.75;100.00
75895;BME280;64573;50.328;15.014;2023-09-30T08:48:23;99731.09;;;16.66;100.00
75895;BME280;64573;50.328;15.014;2023-09-30T08:50:52;99734.31;;;16.83;100.00
75895;BME280;64573;50.328;15.014;2023-09-30T08:53:19;99743.38;;;16.69;100.00
75895;BME280;64573;50.328;15.014;2023-09-30T08:55:45;99737.53;;;16.65;100.00
75895;BME280;64573;50.328;15.014;2023-09-30T08:58:14;99734.81;;;16.65;100.00
75895;BME280;64573;50.328;15.014;2023-09-30T09:00:40;99750.19;;;16.51;100.00
75895;BME280;64573;50.328;15.014;2023-09-30T09:03:07;99756.47;;;16.59;100.00
75895;BME280;64573;50.328;15.014;2023-09-30T09:05:33;99747.59;;;16.78;100.00
75895;BME280;64573;50.328;15.014;2023-09-30T09:07:58;99761.50;;;16.68;100.00
75895;BME280;64573;50.328;15.014;2023-09-30T09:10:24;99754.03;;;16.70;100.00
75895;BME280;64573;50.328;15.014;2023-09-30T09:12:57;99754.81;;;17.12;100.00
75895;BME280;64573;50.328;15.014;2023-09-30T09:15:27;99753.53;;;17.08;100.00
75895;BME280;64573;50.328;15.014;2023-09-30T09:17:54;99751.81;;;16.87;100.00
75895;BME280;64573;50.328;15.014;2023-09-30T09:20:25;99741.38;;;16.84;100.00
75895;BME280;64573;50.328;15.014;2023-09-30T09:22:53;99752.44;;;16.83;100.00
75895;BME280;64573;50.328;15.014;2023-09-30T09:25:23;99751.00;;;16.93;100.00
75895;BME280;64573;50.328;15.014;2023-09-30T09:27:50;99759.94;;;16.87;100.00
75895;BME280;64573;50.328;15.014;2023-09-30T09:33:10;99765.72;;;17.52;100.00
75895;BME280;64573;50.328;15.014;2023-09-30T09:35:36;99770.38;;;17.84;100.00
75895;BME280;64573;50.328;15.014;2023-09-30T09:38:06;99773.03;;;17.64;100.00
75895;BME280;64573;50.328;15.014;2023-09-30T09:40:33;99776.84;;;17.90;100.00
75895;BME280;64573;50.328;15.014;2023-09-30T09:43:00;99790.31;;;17.24;100.00
75895;BME280;64573;50.328;15.014;2023-09-30T09:45:35;99770.38;;;17.78;100.00
75895;BME280;64573;50.328;15.014;2023-09-30T09:48:05;99776.28;;;18.59;100.00
75895;BME280;64573;50.328;15.014;2023-09-30T09:50:32;99774.03;;;18.50;100.00
75895;BME280;64573;50.328;15.014;2023-09-30T09:52:59;99786.22;;;18.14;100.00
75895;BME280;64573;50.328;15.014;2023-09-30T09:55:26;99781.44;;;17.76;100.00
75895;BME280;64573;50.328;15.014;2023-09-30T09:57:52;99784.50;;;17.67;100.00
75895;BME280;64573;50.328;15.014;2023-09-30T10:00:21;99810.03;;;18.05;100.00
75895;BME280;64573;50.328;15.014;2023-09-30T10:02:49;99778.06;;;17.94;100.00
75895;BME280;64573;50.328;15.014;2023-09-30T10:05:16;99801.41;;;17.62;100.00
75895;BME280;64573;50.328;15.014;2023-09-30T10:07:47;99807.53;;;17.97;100.00
75895;BME280;64573;50.328;15.014;2023-09-30T10:10:18;99800.19;;;18.24;100.00
75895;BME280;64573;50.328;15.014;2023-09-30T10:12:44;99785.78;;;18.10;100.00
75895;BME280;64573;50.328;15.014;2023-09-30T10:18:03;99792.00;;;19.15;100.00
75895;BME280;64573;50.328;15.014;2023-09-30T10:20:34;99784.13;;;19.00;100.00
75895;BME280;64573;50.328;15.014;2023-09-30T10:23:18;99785.44;;;18.91;100.00
75895;BME280;64573;50.328;15.014;2023-09-30T10:26:13;99775.22;;;18.73;100.00
75895;BME280;64573;50.328;15.014;2023-09-30T10:28:47;99785.34;;;19.05;100.00
75895;BME280;64573;50.328;15.014;2023-09-30T10:31:22;99776.38;;;18.33;100.00
75895;BME280;64573;50.328;15.014;2023-09-30T10:36:30;99770.13;;;19.35;100.00
75895;BME280;64573;50.328;15.014;2023-09-30T10:38:56;99773.13;;;19.59;100.00
75895;BME280;64573;50.328;15.014;2023-09-30T10:49:49;99774.47;;;19.05;100.00
75895;BME280;64573;50.328;15.014;2023-09-30T10:52:24;99782.41;;;19.76;100.00
75895;BME280;64573;50.328;15.014;2023-09-30T10:54:51;99776.34;;;20.24;100.00
75895;BME280;64573;50.328;15.014;2023-09-30T10:57:26;99784.56;;;19.36;100.00
75895;BME280;64573;50.328;15.014;2023-09-30T11:00:11;99770.25;;;19.47;100.00
75895;BME280;64573;50.328;15.014;2023-09-30T11:02:51;99772.13;;;19.46;100.00
75895;BME280;64573;50.328;15.014;2023-09-30T11:05:18;99776.50;;;19.86;100.00
75895;BME280;64573;50.328;15.014;2023-09-30T11:07:47;99776.59;;;19.97;100.00
75895;BME280;64573;50.328;15.014;2023-09-30T11:10:18;99798.47;;;19.84;100.00
75895;BME280;64573;50.328;15.014;2023-09-30T11:12:57;99784.25;;;19.50;100.00
75895;BME280;64573;50.328;15.014;2023-09-30T11:15:23;99786.88;;;19.32;100.00
75895;BME280;64573;50.328;15.014;2023-09-30T11:17:49;99786.69;;;19.90;100.00
75895;BME280;64573;50.328;15.014;2023-09-30T11:20:16;99783.22;;;20.51;100.00
75895;BME280;64573;50.328;15.014;2023-09-30T11:22:42;99794.78;;;21.02;100.00
75895;BME280;64573;50.328;15.014;2023-09-30T11:25:15;99783.38;;;19.88;100.00
75895;BME280;64573;50.328;15.014;2023-09-30T11:27:41;99783.97;;;19.65;100.00
75895;BME280;64573;50.328;15.014;2023-09-30T11:30:07;99784.53;;;19.42;100.00
75895;BME280;64573;50.328;15.014;2023-09-30T11:32:33;99772.25;;;18.88;100.00
75895;BME280;64573;50.328;15.014;2023-09-30T11:34:59;99780.84;;;19.23;100.00
75895;BME280;64573;50.328;15.014;2023-09-30T11:37:31;99778.63;;;19.77;100.00
75895;BME280;64573;50.328;15.014;2023-09-30T11:40:14;99774.66;;;19.79;100.00
75895;BME280;64573;50.328;15.014;2023-09-30T11:42:40;99779.50;;;19.77;100.00
75895;BME280;64573;50.328;15.014;2023-09-30T11:45:19;99782.00;;;19.41;100.00
75895;BME280;64573;50.328;15.014;2023-09-30T11:47:47;99778.13;;;20.11;100.00
75895;BME280;64573;50.328;15.014;2023-09-30T11:50:14;99781.69;;;19.62;100.00
75895;BME280;64573;50.328;15.014;2023-09-30T11:52:44;99781.03;;;19.67;100.00
75895;BME280;64573;50.328;15.014;2023-09-30T11:55:11;99769.69;;;19.38;100.00
75895;BME280;64573;50.328;15.014;2023-09-30T11:57:38;99772.59;;;19.43;100.00
75895;BME280;64573;50.328;15.014;2023-09-30T12:00:04;99781.03;;;19.28;100.00
75895;BME280;64573;50.328;15.014;2023-09-30T12:02:38;99765.31;;;18.99;100.00
75895;BME280;64573;50.328;15.014;2023-09-30T12:05:05;99771.47;;;18.61;100.00
75895;BME280;64573;50.328;15.014;2023-09-30T12:07:37;99766.84;;;18.75;100.00
75895;BME280;64573;50.328;15.014;2023-09-30T12:10:02;99766.22;;;19.24;100.00
75895;BME280;64573;50.328;15.014;2023-09-30T12:12:28;99766.13;;;19.06;100.00
75895;BME280;64573;50.328;15.014;2023-09-30T12:14:53;99773.09;;;19.90;100.00
75895;BME280;64573;50.328;15.014;2023-09-30T12:17:20;99769.72;;;20.38;100.00
75895;BME280;64573;50.328;15.014;2023-09-30T12:19:47;99774.50;;;19.36;100.00
75895;BME280;64573;50.328;15.014;2023-09-30T12:22:13;99765.97;;;19.26;100.00
75895;BME280;64573;50.328;15.014;2023-09-30T12:24:38;99767.56;;;19.40;100.00
75895;BME280;64573;50.328;15.014;2023-09-30T12:27:05;99770.59;;;19.89;100.00
75895;BME280;64573;50.328;15.014;2023-09-30T12:29:31;99761.09;;;20.78;100.00
75895;BME280;64573;50.328;15.014;2023-09-30T12:31:57;99768.69;;;20.57;100.00
75895;BME280;64573;50.328;15.014;2023-09-30T12:34:22;99756.34;;;20.73;100.00
75895;BME280;64573;50.328;15.014;2023-09-30T12:36:51;99760.44;;;21.12;100.00
75895;BME280;64573;50.328;15.014;2023-09-30T12:39:16;99748.75;;;21.65;100.00
75895;BME280;64573;50.328;15.014;2023-09-30T12:41:43;99751.53;;;21.35;100.00
75895;BME280;64573;50.328;15.014;2023-09-30T12:44:09;99754.22;;;21.24;100.00
75895;BME280;64573;50.328;15.014;2023-09-30T12:46:36;99747.06;;;22.18;100.00
75895;BME280;64573;50.328;15.014;2023-09-30T12:49:06;99741.88;;;21.51;100.00
75895;BME280;64573;50.328;15.014;2023-09-30T12:51:32;99740.56;;;21.65;100.00
75895;BME280;64573;50.328;15.014;2023-09-30T12:53:59;99733.72;;;22.45;100.00
75895;BME280;64573;50.328;15.014;2023-09-30T12:56:24;99738.81;;;23.05;100.00
75895;BME280;64573;50.328;15.014;2023-09-30T12:58:50;99739.53;;;22.60;100.00